createdAt,value
2018-05-16T00:00:03.579Z,6.20
2018-05-16T00:01:03.563Z,6.70
2018-05-16T00:02:03.551Z,6.40
2018-05-16T00:03:03.542Z,6.50
2018-05-16T00:04:03.537Z,6.30
2018-05-16T00:05:03.539Z,6.40
2018-05-16T00:06:03.509Z,6.40
2018-05-16T00:07:03.492Z,6.40
2018-05-16T00:08:03.479Z,6.10
2018-05-16T00:09:03.475Z,6.60
2018-05-16T00:10:03.452Z,6.10
2018-05-16T00:11:03.447Z,6.60
2018-05-16T00:12:03.428Z,6.00
2018-05-16T00:13:03.422Z,6.30
2018-05-16T00:14:03.409Z,6.00
2018-05-16T00:15:03.395Z,6.10
2018-05-16T00:16:03.384Z,6.10
2018-05-16T00:17:03.369Z,6.30
2018-05-16T00:18:03.360Z,6.40
2018-05-16T00:19:03.346Z,6.10
2018-05-16T00:20:03.334Z,6.30
2018-05-16T00:21:03.329Z,6.20
2018-05-16T00:22:03.316Z,6.20
2018-05-16T00:23:03.296Z,6.40
2018-05-16T00:24:03.281Z,6.40
2018-05-16T00:25:03.266Z,6.40
2018-05-16T00:26:03.249Z,6.60
2018-05-16T00:27:03.241Z,6.60
2018-05-16T00:28:03.234Z,6.50
2018-05-16T00:29:03.219Z,7.00
2018-05-16T00:30:03.208Z,6.70
2018-05-16T00:31:03.187Z,7.40
2018-05-16T00:32:03.182Z,7.00
2018-05-16T00:33:03.168Z,7.40
2018-05-16T00:34:03.213Z,7.10
2018-05-16T00:35:03.152Z,6.50
2018-05-16T00:36:03.136Z,6.60
2018-05-16T00:37:03.130Z,6.70
2018-05-16T00:38:03.117Z,6.50
2018-05-16T00:39:03.090Z,6.60
2018-05-16T00:40:03.082Z,6.70
2018-05-16T00:41:03.076Z,6.50
2018-05-16T00:42:03.059Z,6.50
2018-05-16T00:43:03.037Z,6.40
2018-05-16T00:44:03.027Z,6.60
2018-05-16T00:45:03.016Z,6.30
2018-05-16T00:46:02.997Z,6.60
2018-05-16T00:47:02.990Z,6.90
2018-05-16T00:48:02.978Z,6.70
2018-05-16T00:49:02.987Z,6.20
2018-05-16T00:50:02.954Z,6.30
2018-05-16T00:51:02.933Z,6.40
2018-05-16T00:52:02.932Z,5.90
2018-05-16T00:53:02.903Z,5.90
2018-05-16T00:54:02.890Z,6.20
2018-05-16T00:55:02.881Z,6.60
2018-05-16T00:56:02.866Z,6.50
2018-05-16T00:57:02.877Z,6.40
2018-05-16T00:58:02.842Z,6.80
2018-05-16T00:59:02.829Z,6.50
2018-05-16T01:00:02.822Z,6.20
2018-05-16T01:01:02.799Z,6.80
2018-05-16T01:02:02.779Z,6.90
2018-05-16T01:03:02.787Z,6.30
2018-05-16T01:04:02.781Z,6.70
2018-05-16T01:05:02.742Z,7.10
2018-05-16T01:06:02.736Z,6.40
2018-05-16T01:07:02.721Z,6.80
2018-05-16T01:08:02.706Z,6.70
2018-05-16T01:09:02.695Z,6.20
2018-05-16T01:10:02.681Z,6.50
2018-05-16T01:11:02.668Z,6.50
2018-05-16T01:12:02.644Z,6.40
2018-05-16T01:13:02.641Z,6.90
2018-05-16T01:14:02.639Z,6.60
2018-05-16T01:15:02.636Z,6.60
2018-05-16T01:16:02.592Z,6.70
2018-05-16T01:17:02.580Z,6.60
2018-05-16T01:18:02.563Z,6.80
2018-05-16T01:19:02.572Z,7.00
2018-05-16T01:20:02.536Z,7.20
2018-05-16T01:21:02.523Z,6.70
2018-05-16T01:22:02.509Z,7.00
2018-05-16T01:23:02.498Z,7.70
2018-05-16T01:24:02.485Z,7.30
2018-05-16T01:25:02.472Z,8.50
2018-05-16T01:26:02.459Z,7.40
2018-05-16T01:27:02.442Z,8.60
2018-05-16T01:28:02.425Z,9.00
2018-05-16T01:29:02.428Z,9.80
2018-05-16T01:30:02.402Z,9.30
2018-05-16T01:31:02.387Z,8.80
2018-05-16T01:32:02.380Z,9.70
2018-05-16T01:33:02.361Z,9.60
2018-05-16T01:34:02.348Z,8.30
2018-05-16T01:35:02.350Z,7.80
2018-05-16T01:36:02.324Z,7.10
2018-05-16T01:37:02.302Z,6.50
2018-05-16T01:38:02.314Z,6.70
2018-05-16T01:39:02.303Z,7.00
2018-05-16T01:40:02.342Z,6.60
2018-05-16T01:41:02.250Z,6.90
2018-05-16T01:42:02.247Z,7.00
2018-05-16T01:43:02.237Z,8.00
2018-05-16T01:44:02.208Z,7.00
2018-05-16T01:45:02.192Z,7.80
2018-05-16T01:46:02.188Z,7.20
2018-05-16T01:47:02.167Z,7.60
2018-05-16T01:48:02.160Z,6.90
2018-05-16T01:49:02.135Z,6.60
2018-05-16T01:50:02.130Z,7.00
2018-05-16T01:51:02.123Z,6.50
2018-05-16T01:52:02.120Z,7.20
2018-05-16T01:53:02.100Z,6.50
2018-05-16T01:54:02.077Z,6.30
2018-05-16T01:55:02.074Z,6.80
2018-05-16T01:56:02.049Z,7.00
2018-05-16T01:57:02.041Z,7.10
2018-05-16T01:58:02.025Z,6.60
2018-05-16T01:59:02.012Z,7.20
2018-05-16T02:00:01.997Z,7.10
2018-05-16T02:01:01.979Z,6.70
2018-05-16T02:02:01.964Z,6.50
2018-05-16T02:03:01.954Z,7.00
2018-05-16T02:04:01.938Z,6.90
2018-05-16T02:05:01.929Z,7.00
2018-05-16T02:06:01.910Z,6.70
2018-05-16T02:07:01.895Z,6.30
2018-05-16T02:08:01.878Z,6.90
2018-05-16T02:09:01.872Z,6.60
2018-05-16T02:10:01.873Z,6.90
2018-05-16T02:11:01.847Z,6.50
2018-05-16T02:12:01.833Z,7.00
2018-05-16T02:13:01.825Z,7.10
2018-05-16T02:14:01.804Z,7.30
2018-05-16T02:15:01.793Z,7.40
2018-05-16T02:16:01.779Z,7.40
2018-05-16T02:17:01.769Z,7.20
2018-05-16T02:18:01.750Z,7.00
2018-05-16T02:19:01.728Z,7.50
2018-05-16T02:20:01.722Z,9.20
2018-05-16T02:21:01.713Z,7.10
2018-05-16T02:22:01.686Z,7.30
2018-05-16T02:23:01.678Z,7.20
2018-05-16T02:24:01.667Z,7.40
2018-05-16T02:25:01.646Z,7.80
2018-05-16T02:26:01.631Z,7.40
2018-05-16T02:27:01.619Z,7.80
2018-05-16T02:28:01.611Z,7.50
2018-05-16T02:29:01.587Z,7.40
2018-05-16T02:30:01.589Z,8.40
2018-05-16T02:31:01.569Z,7.60
2018-05-16T02:32:01.560Z,7.80
2018-05-16T02:33:01.544Z,7.20
2018-05-16T02:34:01.519Z,7.00
2018-05-16T02:35:01.511Z,7.70
2018-05-16T02:36:01.499Z,7.80
2018-05-16T02:37:01.486Z,8.00
2018-05-16T02:38:01.469Z,8.30
2018-05-16T02:39:01.448Z,8.00
2018-05-16T02:40:01.451Z,7.60
2018-05-16T02:41:01.426Z,8.10
2018-05-16T02:42:01.404Z,7.90
2018-05-16T02:43:01.396Z,8.00
2018-05-16T02:44:01.391Z,8.20
2018-05-16T02:45:01.374Z,8.60
2018-05-16T02:46:01.348Z,8.30
2018-05-16T02:47:01.555Z,9.40
2018-05-16T02:48:01.415Z,7.80
2018-05-16T02:49:01.369Z,9.10
2018-05-16T02:50:01.384Z,8.20
2018-05-16T02:51:01.308Z,8.30
2018-05-16T02:52:01.351Z,8.50
2018-05-16T02:53:01.265Z,8.30
2018-05-16T02:54:01.242Z,8.40
2018-05-16T02:55:01.287Z,8.70
2018-05-16T02:56:01.314Z,8.10
2018-05-16T02:57:01.217Z,8.10
2018-05-16T02:58:01.329Z,8.50
2018-05-16T02:59:01.261Z,8.40
2018-05-16T03:00:01.182Z,8.70
2018-05-16T03:01:01.139Z,8.50
2018-05-16T03:02:01.178Z,8.30
2018-05-16T03:03:01.157Z,8.70
2018-05-16T03:04:01.105Z,8.80
2018-05-16T03:05:01.151Z,7.90
2018-05-16T03:06:01.082Z,8.40
2018-05-16T03:07:01.138Z,8.00
2018-05-16T03:08:01.068Z,8.60
2018-05-16T03:09:01.026Z,8.40
2018-05-16T03:10:01.051Z,8.40
2018-05-16T03:11:01.023Z,8.40
2018-05-16T03:12:01.054Z,8.30
2018-05-16T03:13:01.000Z,9.00
2018-05-16T03:14:00.960Z,8.90
2018-05-16T03:15:01.003Z,8.80
2018-05-16T03:16:00.986Z,9.00
2018-05-16T03:17:00.969Z,9.20
2018-05-16T03:18:00.897Z,8.40
2018-05-16T03:19:00.887Z,8.80
2018-05-16T03:20:00.921Z,8.40
2018-05-16T03:21:01.015Z,8.80
2018-05-16T03:22:00.871Z,8.70
2018-05-16T03:23:00.901Z,8.80
2018-05-16T03:24:00.933Z,9.40
2018-05-16T03:25:00.818Z,8.80
2018-05-16T03:26:00.832Z,8.30
2018-05-16T03:27:00.810Z,8.70
2018-05-16T03:28:00.765Z,8.70
2018-05-16T03:29:00.776Z,8.90
2018-05-16T03:30:00.725Z,9.10
2018-05-16T03:31:00.762Z,8.50
2018-05-16T03:32:00.700Z,7.90
2018-05-16T03:33:00.812Z,8.90
2018-05-16T03:34:00.713Z,8.60
2018-05-16T03:35:00.766Z,8.80
2018-05-16T03:36:00.687Z,8.50
2018-05-16T03:37:00.627Z,8.40
2018-05-16T03:38:00.642Z,8.90
2018-05-16T03:39:00.660Z,9.00
2018-05-16T03:40:00.580Z,8.40
2018-05-16T03:41:00.581Z,8.80
2018-05-16T03:42:00.583Z,8.90
2018-05-16T03:43:00.687Z,8.60
2018-05-16T03:44:00.551Z,9.10
2018-05-16T03:45:00.559Z,9.00
2018-05-16T03:46:00.529Z,8.80
2018-05-16T03:47:00.500Z,9.10
2018-05-16T03:48:00.469Z,8.60
2018-05-16T03:49:00.460Z,8.90
2018-05-16T03:50:00.444Z,8.70
2018-05-16T03:51:00.508Z,8.20
2018-05-16T03:52:00.598Z,9.30
2018-05-16T03:53:00.394Z,9.10
2018-05-16T03:54:00.384Z,8.90
2018-05-16T03:55:00.444Z,8.80
2018-05-16T03:56:00.373Z,8.30
2018-05-16T03:57:00.344Z,9.20
2018-05-16T03:58:00.332Z,9.60
2018-05-16T03:59:00.309Z,9.00
2018-05-16T04:00:00.296Z,9.20
2018-05-16T04:01:00.281Z,8.90
2018-05-16T04:02:00.266Z,9.10
2018-05-16T04:03:00.294Z,9.60
2018-05-16T04:04:00.271Z,9.70
2018-05-16T04:05:00.251Z,8.80
2018-05-16T04:06:00.210Z,9.90
2018-05-16T04:07:00.196Z,9.40
2018-05-16T04:08:00.178Z,9.90
2018-05-16T04:09:00.170Z,8.70
2018-05-16T04:10:00.150Z,9.30
2018-05-16T04:11:00.139Z,9.00
2018-05-16T04:12:00.124Z,8.90
2018-05-16T04:13:00.103Z,9.50
2018-05-16T04:14:00.096Z,8.70
2018-05-16T04:15:00.081Z,9.00
2018-05-16T04:16:00.127Z,9.70
2018-05-16T04:17:00.046Z,8.80
2018-05-16T04:18:00.033Z,9.10
2018-05-16T04:19:00.032Z,9.40
2018-05-16T04:20:00.009Z,8.90
2018-05-16T04:20:59.995Z,9.60
2018-05-16T04:21:59.983Z,9.20
2018-05-16T04:22:59.962Z,9.20
2018-05-16T04:23:59.968Z,9.30
2018-05-16T04:24:59.973Z,9.60
2018-05-16T04:25:59.941Z,9.50
2018-05-16T04:26:59.908Z,10.00
2018-05-16T04:27:59.895Z,9.10
2018-05-16T04:28:59.887Z,9.60
2018-05-16T04:29:59.872Z,9.40
2018-05-16T04:30:59.852Z,9.50
2018-05-16T04:31:59.845Z,9.10
2018-05-16T04:32:59.825Z,9.90
2018-05-16T04:33:59.807Z,9.90
2018-05-16T04:34:59.796Z,9.40
2018-05-16T04:35:59.786Z,9.60
2018-05-16T04:36:59.764Z,9.80
2018-05-16T04:37:59.753Z,9.40
2018-05-16T04:38:59.733Z,9.60
2018-05-16T04:39:59.730Z,9.00
2018-05-16T04:40:59.712Z,9.60
2018-05-16T04:41:59.717Z,10.20
2018-05-16T04:42:59.680Z,9.30
2018-05-16T04:43:59.676Z,9.10
2018-05-16T04:44:59.692Z,9.50
2018-05-16T04:45:59.641Z,9.80
2018-05-16T04:46:59.650Z,8.80
2018-05-16T04:47:59.607Z,9.70
2018-05-16T04:48:59.598Z,9.70
2018-05-16T04:49:59.588Z,9.10
2018-05-16T04:50:59.564Z,9.50
2018-05-16T04:51:59.556Z,9.50
2018-05-16T04:52:59.537Z,9.20
2018-05-16T04:53:59.534Z,9.80
2018-05-16T04:54:59.521Z,9.60
2018-05-16T04:55:59.502Z,9.50
2018-05-16T04:56:59.494Z,9.90
2018-05-16T04:57:59.480Z,10.60
2018-05-16T04:58:59.462Z,10.80
2018-05-16T04:59:59.483Z,9.80
2018-05-16T05:00:59.447Z,10.20
2018-05-16T05:01:59.461Z,9.20
2018-05-16T05:02:59.425Z,9.60
2018-05-16T05:03:59.383Z,9.20
2018-05-16T05:04:59.374Z,10.30
2018-05-16T05:05:59.385Z,9.30
2018-05-16T05:06:59.355Z,8.80
2018-05-16T05:07:59.339Z,9.30
2018-05-16T05:08:59.451Z,10.00
2018-05-16T05:09:59.337Z,9.30
2018-05-16T05:10:59.290Z,8.70
2018-05-16T05:11:59.303Z,9.40
2018-05-16T05:12:59.272Z,9.70
2018-05-16T05:13:59.240Z,9.10
2018-05-16T05:14:59.244Z,9.90
2018-05-16T05:15:59.223Z,9.90
2018-05-16T05:16:59.196Z,9.60
2018-05-16T05:17:59.205Z,9.50
2018-05-16T05:18:59.197Z,8.80
2018-05-16T05:19:59.171Z,8.80
2018-05-16T05:20:59.197Z,8.70
2018-05-16T05:21:59.173Z,9.40
2018-05-16T05:22:59.120Z,8.00
2018-05-16T05:23:59.146Z,8.70
2018-05-16T05:24:59.101Z,9.30
2018-05-16T05:25:59.101Z,8.90
2018-05-16T05:26:59.084Z,8.50
2018-05-16T05:27:59.081Z,8.40
2018-05-16T05:28:59.029Z,8.20
2018-05-16T05:29:59.029Z,8.50
2018-05-16T05:30:59.079Z,8.40
2018-05-16T05:31:59.025Z,7.40
2018-05-16T05:32:58.996Z,7.50
2018-05-16T05:33:58.975Z,7.70
2018-05-16T05:34:58.978Z,7.60
2018-05-16T05:35:58.954Z,8.40
2018-05-16T05:36:59.069Z,7.80
2018-05-16T05:37:58.940Z,7.50
2018-05-16T05:38:58.913Z,7.70
2018-05-16T05:39:58.894Z,8.00
2018-05-16T05:40:58.878Z,7.30
2018-05-16T05:41:58.858Z,7.50
2018-05-16T05:42:58.873Z,7.10
2018-05-16T05:43:58.854Z,7.40
2018-05-16T05:44:58.815Z,7.20
2018-05-16T05:45:58.846Z,7.10
2018-05-16T05:46:58.804Z,7.20
2018-05-16T05:47:58.800Z,7.90
2018-05-16T05:48:58.779Z,7.10
2018-05-16T05:49:58.757Z,7.90
2018-05-16T05:50:58.736Z,7.60
2018-05-16T05:51:58.753Z,6.80
2018-05-16T05:52:58.732Z,7.20
2018-05-16T05:53:58.696Z,7.60
2018-05-16T05:54:58.683Z,7.60
2018-05-16T05:55:58.685Z,7.80
2018-05-16T05:56:58.684Z,7.90
2018-05-16T05:57:58.635Z,8.00
2018-05-16T05:58:58.619Z,8.10
2018-05-16T05:59:58.621Z,7.50
2018-05-16T06:00:58.648Z,8.20
2018-05-16T06:01:58.639Z,8.50
2018-05-16T06:02:58.582Z,8.40
2018-05-16T06:03:58.575Z,7.80
2018-05-16T06:04:58.546Z,9.30
2018-05-16T06:05:58.543Z,9.00
2018-05-16T06:06:58.547Z,9.60
2018-05-16T06:07:58.528Z,9.70
2018-05-16T06:08:58.508Z,10.00
2018-05-16T06:09:58.471Z,9.50
2018-05-16T06:10:58.475Z,9.90
2018-05-16T06:11:58.455Z,10.10
2018-05-16T06:12:58.443Z,9.50
2018-05-16T06:13:58.441Z,10.00
2018-05-16T06:14:58.404Z,10.10
2018-05-16T06:15:58.423Z,9.60
2018-05-16T06:16:58.401Z,9.80
2018-05-16T06:17:58.398Z,10.50
2018-05-16T06:18:58.384Z,9.80
2018-05-16T06:19:58.363Z,9.80
2018-05-16T06:20:58.342Z,9.90
2018-05-16T06:21:58.331Z,9.60
2018-05-16T06:22:58.315Z,8.90
2018-05-16T06:23:58.297Z,10.20
2018-05-16T06:24:58.297Z,10.40
2018-05-16T06:25:58.274Z,11.30
2018-05-16T06:26:58.273Z,10.90
2018-05-16T06:27:58.316Z,11.00
2018-05-16T06:28:58.240Z,11.70
2018-05-16T06:29:58.253Z,10.90
2018-05-16T06:30:58.238Z,10.80
2018-05-16T06:31:58.223Z,10.90
2018-05-16T06:32:58.199Z,11.80
2018-05-16T06:33:58.164Z,12.10
2018-05-16T06:34:58.191Z,12.50
2018-05-16T06:35:58.181Z,11.80
2018-05-16T06:36:58.157Z,11.90
2018-05-16T06:37:58.131Z,12.10
2018-05-16T06:38:58.129Z,12.20
2018-05-16T06:39:58.124Z,13.00
2018-05-16T06:40:58.142Z,12.00
2018-05-16T06:41:58.098Z,11.60
2018-05-16T06:42:58.110Z,12.00
2018-05-16T06:43:58.079Z,11.70
2018-05-16T06:44:58.038Z,11.90
2018-05-16T06:45:58.136Z,12.10
2018-05-16T06:46:58.038Z,11.80
2018-05-16T06:47:58.046Z,12.20
2018-05-16T06:48:58.005Z,11.40
2018-05-16T06:49:58.000Z,11.90
2018-05-16T06:50:58.132Z,12.00
2018-05-16T06:51:57.968Z,11.70
2018-05-16T06:52:57.965Z,12.10
2018-05-16T06:53:57.932Z,11.80
2018-05-16T06:54:57.969Z,12.30
2018-05-16T06:55:57.958Z,11.70
2018-05-16T06:56:57.965Z,12.60
2018-05-16T06:57:57.947Z,11.30
2018-05-16T06:58:57.950Z,11.60
2018-05-16T06:59:57.930Z,12.80
2018-05-16T07:00:57.880Z,12.10
2018-05-16T07:01:57.904Z,11.50
2018-05-16T07:02:57.871Z,12.20
2018-05-16T07:03:57.928Z,11.50
2018-05-16T07:04:57.926Z,12.70
2018-05-16T07:05:57.867Z,12.40
2018-05-16T07:06:57.854Z,12.30
2018-05-16T07:07:57.842Z,13.30
2018-05-16T07:08:57.819Z,13.30
2018-05-16T07:09:57.833Z,12.70
2018-05-16T07:10:57.817Z,12.70
2018-05-16T07:11:57.772Z,13.10
2018-05-16T07:12:57.761Z,13.60
2018-05-16T07:13:57.752Z,14.10
2018-05-16T07:14:57.746Z,14.30
2018-05-16T07:15:57.741Z,14.50
2018-05-16T07:16:57.769Z,14.30
2018-05-16T07:17:57.733Z,15.90
2018-05-16T07:18:57.705Z,14.00
2018-05-16T07:19:57.733Z,14.90
2018-05-16T07:20:57.697Z,15.50
2018-05-16T07:21:57.650Z,15.10
2018-05-16T07:22:57.652Z,15.20
2018-05-16T07:23:58.297Z,15.20
2018-05-16T07:24:57.619Z,15.50
2018-05-16T07:25:57.625Z,16.10
2018-05-16T07:26:57.607Z,16.30
2018-05-16T07:27:57.595Z,16.10
2018-05-16T07:28:57.588Z,17.40
2018-05-16T07:29:57.580Z,17.00
2018-05-16T07:30:57.532Z,16.80
2018-05-16T07:31:57.584Z,16.50
2018-05-16T07:32:57.549Z,16.10
2018-05-16T07:33:57.526Z,16.00
2018-05-16T07:34:57.482Z,17.00
2018-05-16T07:35:57.555Z,17.00
2018-05-16T07:36:57.504Z,16.40
2018-05-16T07:37:57.446Z,16.70
2018-05-16T07:38:57.442Z,16.50
2018-05-16T07:39:57.485Z,15.50
2018-05-16T07:40:57.408Z,16.30
2018-05-16T07:41:57.406Z,15.60
2018-05-16T07:42:57.405Z,16.50
2018-05-16T07:43:57.385Z,16.50
2018-05-16T07:44:57.405Z,16.40
2018-05-16T07:45:57.355Z,16.90
2018-05-16T07:46:57.400Z,16.00
2018-05-16T07:47:57.351Z,16.90
2018-05-16T07:48:57.339Z,16.40
2018-05-16T07:49:57.300Z,15.70
2018-05-16T07:50:57.285Z,16.20
2018-05-16T07:51:57.286Z,16.20
2018-05-16T07:52:57.217Z,16.40
2018-05-16T07:53:57.219Z,16.10
2018-05-16T07:54:57.261Z,18.30
2018-05-16T07:55:57.260Z,20.40
2018-05-16T07:56:57.194Z,16.10
2018-05-16T07:57:57.205Z,16.70
2018-05-16T07:58:57.209Z,16.10
2018-05-16T07:59:57.206Z,14.90
2018-05-16T08:00:57.129Z,16.10
2018-05-16T08:01:57.140Z,15.00
2018-05-16T08:02:57.136Z,15.40
2018-05-16T08:03:57.116Z,15.30
2018-05-16T08:04:57.102Z,16.30
2018-05-16T08:05:57.100Z,16.30
2018-05-16T08:06:57.088Z,17.60
2018-05-16T08:07:57.042Z,16.20
2018-05-16T08:08:57.035Z,16.80
2018-05-16T08:09:57.025Z,15.80
2018-05-16T08:10:57.069Z,15.30
2018-05-16T08:11:57.010Z,17.70
2018-05-16T08:12:57.044Z,16.40
2018-05-16T08:13:57.014Z,17.00
2018-05-16T08:14:56.984Z,16.00
2018-05-16T08:15:57.033Z,16.10
2018-05-16T08:16:56.999Z,16.20
2018-05-16T08:17:57.029Z,17.00
2018-05-16T08:18:56.939Z,16.80
2018-05-16T08:19:56.905Z,16.80
2018-05-16T08:20:56.924Z,17.50
2018-05-16T08:21:56.886Z,18.20
2018-05-16T08:22:56.872Z,18.60
2018-05-16T08:23:57.777Z,17.90
2018-05-16T08:24:56.849Z,19.20
2018-05-16T08:25:56.874Z,18.50
2018-05-16T08:26:56.903Z,18.30
2018-05-16T08:27:56.862Z,18.20
2018-05-16T08:28:56.827Z,17.80
2018-05-16T08:29:56.795Z,18.10
2018-05-16T08:30:56.855Z,18.60
2018-05-16T08:31:56.799Z,18.20
2018-05-16T08:32:56.781Z,18.10
2018-05-16T08:33:56.776Z,18.40
2018-05-16T08:34:56.730Z,20.60
2018-05-16T08:35:56.751Z,19.50
2018-05-16T08:36:56.723Z,19.10
2018-05-16T08:37:56.697Z,20.00
2018-05-16T08:38:56.726Z,19.60
2018-05-16T08:39:56.714Z,20.20
2018-05-16T08:40:56.672Z,19.00
2018-05-16T08:41:56.711Z,19.50
2018-05-16T08:42:56.708Z,19.80
2018-05-16T08:43:56.656Z,20.50
2018-05-16T08:44:56.659Z,20.30
2018-05-16T08:45:56.625Z,20.20
2018-05-16T08:46:56.599Z,19.40
2018-05-16T08:47:56.605Z,19.70
2018-05-16T08:48:56.599Z,18.90
2018-05-16T08:49:56.591Z,19.50
2018-05-16T08:50:56.579Z,19.20
2018-05-16T08:51:56.572Z,18.00
2018-05-16T08:52:56.544Z,18.40
2018-05-16T08:53:56.557Z,18.50
2018-05-16T08:54:56.528Z,18.10
2018-05-16T08:55:56.522Z,18.10
2018-05-16T08:56:56.497Z,19.20
2018-05-16T08:57:56.491Z,17.60
2018-05-16T08:58:56.557Z,17.60
2018-05-16T08:59:56.560Z,19.20
2018-05-16T09:00:56.475Z,17.90
2018-05-16T09:01:56.460Z,17.80
2018-05-16T09:02:56.527Z,17.60
2018-05-16T09:03:56.446Z,18.20
2018-05-16T09:04:56.454Z,17.00
2018-05-16T09:05:56.431Z,16.90
2018-05-16T09:06:56.438Z,17.80
2018-05-16T09:07:56.426Z,17.10
2018-05-16T09:08:56.373Z,16.90
2018-05-16T09:09:56.377Z,14.70
2018-05-16T09:10:56.351Z,14.50
2018-05-16T09:11:56.379Z,14.40
2018-05-16T09:12:56.376Z,14.10
2018-05-16T09:13:56.362Z,14.30
2018-05-16T09:14:56.336Z,12.60
2018-05-16T09:15:56.343Z,14.00
2018-05-16T09:16:56.322Z,13.00
2018-05-16T09:17:56.303Z,13.50
2018-05-16T09:18:56.340Z,13.60
2018-05-16T09:19:56.328Z,14.20
2018-05-16T09:20:56.326Z,13.90
2018-05-16T09:21:56.346Z,13.20
2018-05-16T09:22:56.304Z,13.10
2018-05-16T09:23:56.227Z,13.00
2018-05-16T09:24:56.227Z,15.00
2018-05-16T09:25:56.273Z,13.50
2018-05-16T09:26:56.232Z,13.60
2018-05-16T09:27:56.241Z,14.40
2018-05-16T09:28:56.224Z,14.00
2018-05-16T09:29:56.214Z,13.10
2018-05-16T09:30:56.187Z,12.50
2018-05-16T09:31:56.156Z,13.50
2018-05-16T09:32:56.259Z,13.40
2018-05-16T09:33:56.130Z,12.10
2018-05-16T09:34:56.144Z,12.60
2018-05-16T09:35:56.152Z,12.10
2018-05-16T09:36:56.136Z,13.00
2018-05-16T09:37:56.104Z,13.30
2018-05-16T09:38:56.112Z,12.10
2018-05-16T09:39:56.101Z,12.50
2018-05-16T09:40:56.141Z,12.00
2018-05-16T09:41:56.133Z,14.00
2018-05-16T09:42:56.065Z,12.50
2018-05-16T09:43:56.075Z,11.10
2018-05-16T09:44:56.028Z,11.70
2018-05-16T09:45:56.068Z,11.80
2018-05-16T09:46:56.025Z,12.50
2018-05-16T09:47:56.041Z,11.50
2018-05-16T09:48:56.013Z,12.50
2018-05-16T09:49:56.009Z,11.60
2018-05-16T09:50:56.031Z,13.60
2018-05-16T09:51:56.001Z,12.80
2018-05-16T09:52:55.998Z,14.20
2018-05-16T09:53:56.030Z,13.10
2018-05-16T09:54:56.003Z,12.50
2018-05-16T09:55:55.982Z,12.70
2018-05-16T09:56:55.944Z,14.60
2018-05-16T09:57:55.945Z,13.20
2018-05-16T09:58:55.956Z,14.70
2018-05-16T09:59:55.959Z,13.40
2018-05-16T10:00:55.894Z,12.40
2018-05-16T10:01:55.939Z,11.60
2018-05-16T10:02:55.990Z,12.20
2018-05-16T10:03:55.905Z,13.20
2018-05-16T10:04:55.870Z,12.50
2018-05-16T10:05:55.885Z,12.80
2018-05-16T10:06:55.844Z,13.30
2018-05-16T10:07:55.874Z,14.40
2018-05-16T10:08:55.845Z,15.20
2018-05-16T10:09:55.880Z,12.90
2018-05-16T10:10:55.826Z,13.00
2018-05-16T10:11:55.800Z,19.10
2018-05-16T10:12:55.849Z,15.50
2018-05-16T10:13:55.822Z,15.30
2018-05-16T10:14:55.758Z,13.50
2018-05-16T10:15:55.789Z,16.10
2018-05-16T10:16:55.807Z,13.50
2018-05-16T10:17:55.733Z,12.90
2018-05-16T10:18:55.715Z,12.90
2018-05-16T10:19:55.737Z,12.20
2018-05-16T10:20:55.693Z,11.50
2018-05-16T10:21:55.748Z,12.00
2018-05-16T10:22:55.668Z,12.20
2018-05-16T10:23:55.727Z,12.00
2018-05-16T10:24:55.719Z,12.00
2018-05-16T10:25:55.666Z,11.90
2018-05-16T10:26:55.646Z,11.40
2018-05-16T10:27:55.691Z,11.80
2018-05-16T10:28:55.654Z,12.00
2018-05-16T10:29:55.671Z,11.10
2018-05-16T10:30:55.613Z,10.80
2018-05-16T10:31:55.638Z,11.90
2018-05-16T10:32:55.604Z,12.80
2018-05-16T10:33:55.564Z,11.70
2018-05-16T10:34:55.580Z,11.40
2018-05-16T10:35:55.593Z,10.50
2018-05-16T10:36:55.563Z,10.90
2018-05-16T10:37:55.576Z,10.70
2018-05-16T10:38:55.560Z,10.60
2018-05-16T10:39:55.527Z,10.50
2018-05-16T10:40:55.564Z,11.40
2018-05-16T10:41:55.570Z,10.10
2018-05-16T10:42:55.532Z,10.70
2018-05-16T10:43:55.547Z,10.50
2018-05-16T10:44:55.530Z,9.60
2018-05-16T10:45:55.498Z,11.00
2018-05-16T10:46:55.498Z,10.30
2018-05-16T10:47:55.493Z,11.30
2018-05-16T10:48:55.559Z,11.40
2018-05-16T10:49:55.466Z,11.50
2018-05-16T10:50:55.513Z,9.80
2018-05-16T10:51:55.438Z,10.80
2018-05-16T10:52:55.452Z,11.30
2018-05-16T10:53:55.455Z,10.90
2018-05-16T10:54:55.451Z,10.20
2018-05-16T10:55:55.420Z,10.50
2018-05-16T10:56:55.431Z,10.20
2018-05-16T10:57:55.397Z,9.80
2018-05-16T10:58:55.444Z,10.60
2018-05-16T10:59:55.395Z,9.60
2018-05-16T11:00:55.407Z,10.70
2018-05-16T11:01:55.375Z,10.40
2018-05-16T11:02:55.376Z,9.80
2018-05-16T11:03:55.373Z,8.90
2018-05-16T11:04:55.310Z,9.40
2018-05-16T11:05:55.307Z,8.60
2018-05-16T11:06:55.295Z,10.00
2018-05-16T11:07:55.288Z,9.50
2018-05-16T11:08:55.321Z,9.50
2018-05-16T11:09:55.284Z,8.40
2018-05-16T11:10:55.268Z,8.00
2018-05-16T11:11:55.289Z,8.50
2018-05-16T11:12:55.255Z,8.10
2018-05-16T11:13:55.272Z,8.10
2018-05-16T11:14:55.277Z,8.60
2018-05-16T11:15:55.300Z,9.00
2018-05-16T11:16:55.257Z,8.00
2018-05-16T11:17:55.230Z,8.00
2018-05-16T11:18:55.250Z,7.90
2018-05-16T11:19:55.239Z,7.40
2018-05-16T11:20:55.857Z,7.90
2018-05-16T11:21:55.225Z,8.10
2018-05-16T11:22:55.203Z,9.30
2018-05-16T11:23:55.181Z,8.40
2018-05-16T11:24:55.236Z,7.10
2018-05-16T11:25:55.221Z,6.60
2018-05-16T11:26:55.170Z,6.80
2018-05-16T11:27:55.134Z,6.70
2018-05-16T11:28:55.136Z,6.60
2018-05-16T11:29:55.129Z,6.60
2018-05-16T11:30:55.109Z,7.20
2018-05-16T11:31:55.141Z,6.80
2018-05-16T11:32:55.130Z,7.00
2018-05-16T11:33:55.120Z,6.40
2018-05-16T11:34:55.125Z,6.50
2018-05-16T11:35:55.106Z,6.20
2018-05-16T11:36:55.157Z,6.90
2018-05-16T11:37:55.115Z,7.20
2018-05-16T11:38:55.174Z,7.00
2018-05-16T11:39:55.111Z,6.30
2018-05-16T11:40:55.070Z,6.40
2018-05-16T11:41:55.092Z,7.00
2018-05-16T11:42:55.141Z,7.10
2018-05-16T11:43:55.050Z,6.40
2018-05-16T11:44:55.064Z,6.70
2018-05-16T11:45:55.015Z,7.50
2018-05-16T11:46:55.024Z,6.50
2018-05-16T11:47:55.082Z,6.90
2018-05-16T11:48:55.115Z,6.60
2018-05-16T11:49:55.068Z,6.50
2018-05-16T11:50:55.060Z,7.50
2018-05-16T11:51:54.985Z,7.30
2018-05-16T11:52:55.036Z,6.90
2018-05-16T11:53:55.054Z,6.70
2018-05-16T11:54:54.973Z,6.90
2018-05-16T11:55:54.957Z,6.80
2018-05-16T11:56:54.981Z,6.90
2018-05-16T11:57:54.940Z,8.00
2018-05-16T11:58:54.927Z,7.90
2018-05-16T11:59:54.964Z,7.50
2018-05-16T12:00:54.924Z,7.10
2018-05-16T12:01:54.925Z,6.50
2018-05-16T12:02:54.988Z,6.40
2018-05-16T12:03:54.899Z,6.50
2018-05-16T12:04:54.880Z,7.30
2018-05-16T12:05:54.890Z,6.50
2018-05-16T12:06:54.851Z,5.30
2018-05-16T12:07:54.880Z,6.80
2018-05-16T12:08:54.886Z,6.20
2018-05-16T12:09:54.854Z,6.10
2018-05-16T12:10:54.839Z,6.20
2018-05-16T12:11:54.821Z,6.30
2018-05-16T12:12:54.804Z,6.30
2018-05-16T12:13:54.783Z,6.50
2018-05-16T12:14:54.779Z,6.40
2018-05-16T12:15:54.812Z,6.80
2018-05-16T12:16:54.761Z,7.60
2018-05-16T12:17:54.796Z,8.00
2018-05-16T12:18:54.776Z,9.60
2018-05-16T12:19:54.774Z,11.40
2018-05-16T12:20:54.770Z,8.30
2018-05-16T12:21:54.781Z,7.60
2018-05-16T12:22:54.776Z,6.80
2018-05-16T12:23:54.737Z,8.40
2018-05-16T12:24:54.739Z,7.30
2018-05-16T12:25:54.723Z,7.80
2018-05-16T12:26:54.736Z,8.10
2018-05-16T12:27:54.718Z,8.20
2018-05-16T12:28:54.837Z,8.30
2018-05-16T12:29:54.669Z,8.70
2018-05-16T12:30:54.691Z,8.50
2018-05-16T12:31:54.732Z,8.30
2018-05-16T12:32:54.695Z,8.90
2018-05-16T12:33:54.675Z,8.20
2018-05-16T12:34:54.649Z,8.50
2018-05-16T12:35:54.649Z,9.40
2018-05-16T12:36:54.640Z,8.90
2018-05-16T12:37:54.674Z,8.80
2018-05-16T12:38:54.628Z,9.70
2018-05-16T12:39:54.605Z,9.20
2018-05-16T12:40:54.667Z,9.10
2018-05-16T12:41:54.641Z,9.40
2018-05-16T12:42:54.599Z,10.00
2018-05-16T12:43:54.582Z,9.80
2018-05-16T12:44:54.549Z,10.10
2018-05-16T12:45:54.590Z,10.10
2018-05-16T12:46:54.591Z,9.60
2018-05-16T12:47:54.560Z,10.50
2018-05-16T12:48:54.576Z,9.10
2018-05-16T12:49:54.517Z,10.30
2018-05-16T12:50:54.532Z,10.20
2018-05-16T12:51:54.573Z,11.40
2018-05-16T12:52:54.522Z,10.30
2018-05-16T12:53:54.518Z,10.20
2018-05-16T12:54:54.496Z,10.70
2018-05-16T12:55:54.506Z,11.90
2018-05-16T12:56:54.461Z,11.70
2018-05-16T12:57:54.454Z,11.30
2018-05-16T12:58:54.463Z,10.90
2018-05-16T12:59:54.491Z,12.80
2018-05-16T13:00:54.428Z,12.10
2018-05-16T13:01:54.450Z,12.00
2018-05-16T13:02:54.429Z,11.50
2018-05-16T13:03:54.438Z,11.10
2018-05-16T13:04:54.411Z,11.80
2018-05-16T13:05:54.406Z,13.90
2018-05-16T13:06:55.365Z,13.60
2018-05-16T13:07:54.371Z,12.40